Terminal Aerodrome Forecast
Issued by NWS

Home | Current Version | Previous Version | Text Only | Print | Product List | Glossary On
Versions: 1 2 3 4 5 6 7 8 9 10 11 12 13 14 15 16 17 18 19
300
FTUS41 KCAR 090521
TAFPQI
TAF
KPQI 090521Z 0906/1006 01010KT P6SM OVC060
     FM090630 01009KT 1 1/2SM -SN OVC025
     FM090800 02008KT 3/4SM -SN OVC008
     FM091830 03010KT 1 1/2SM -SN OVC015
     FM092130 03007KT 5SM -SHSN OVC012
     FM100300 36005KT 6SM -SHSN BR OVC008=

USA.gov is the U.S. government's official web portal to all federal, state and local government web resources and services.